Αρχική σελίδα
METAR-TAF:

METAR-TAF

Αεροδρόμια :

Πουάντ-α-Πιτρ, Γουαδελούπη

γεωγραφικό πλάτος: 16-16N, γεωγραφικό μήκος: 061-31W, υψόμετρο: 11 μ

Παρών καιρός

Η αναφορά έγινε 20 λεπτά πριν, στις 08:00 UTC
Ήπιος άνεμος
Θερμοκρασία 22°C
Υγρασία 88%
Πίεση 1017 hPa
Ορατότητα 10 χλμ και άνω
Λίγα νέφη σε ύψος 5600 πόδια

METAR: TFFR 210800Z AUTO 00000KT 9999 FEW056 22/20 Q1017

Χρόνος: 04:20 (08:20 UTC)


TAF: λείπει

Μετεωρολογικές αναφορές και προγνώσεις για περισσότερα από 4000 αεροδρόμια (δελτία METAR και TAF).

Οι διαθέσιμοι σταθμοί απεικονίζονται στο χάρτη με κίτρινες και κόκκινες κουκκίδες.

Μετακινήστε το ποντίκι πάνω από τις κουκκίδες για να δείτε το όνομα του σταθμού.

Στη συνέχεια, κάντε κλικ για να δείτε τις μετεωρολογικές αναφορές και τις προγνώσεις καιρού.

Για να αλλάξετε το χάρτη: κάντε κλικ στα πράσινα κουμπιά με τον μαύρο σταυρό για να ζουμάρετε, στο πράσινο κουμπί με την παύλα για να αφαιρέσετε το ζουμ ή στα πράσινα βέλη για να αντιπαραβάλλετε χάρτες.


METAR-TAF: